sensor_id;sensor_type;location;lat;lon;timestamp;temperature;humidity
43183;DHT22;28802;38.578;-0.066;2022-11-15T00:01:59;16.40;99.90
43183;DHT22;28802;38.578;-0.066;2022-11-15T00:04:44;16.40;99.90
43183;DHT22;28802;38.578;-0.066;2022-11-15T00:07:29;16.40;99.90
43183;DHT22;28802;38.578;-0.066;2022-11-15T00:10:13;16.30;99.90
43183;DHT22;28802;38.578;-0.066;2022-11-15T00:12:58;16.20;99.90
43183;DHT22;28802;38.578;-0.066;2022-11-15T00:15:42;16.20;99.90
43183;DHT22;28802;38.578;-0.066;2022-11-15T00:18:27;16.20;99.90
43183;DHT22;28802;38.578;-0.066;2022-11-15T00:21:13;16.20;99.90
43183;DHT22;28802;38.578;-0.066;2022-11-15T00:23:58;16.20;99.90
43183;DHT22;28802;38.578;-0.066;2022-11-15T00:26:42;16.20;99.90
43183;DHT22;28802;38.578;-0.066;2022-11-15T00:29:27;16.20;99.90
43183;DHT22;28802;38.578;-0.066;2022-11-15T00:32:11;16.20;99.90
43183;DHT22;28802;38.578;-0.066;2022-11-15T00:34:56;16.20;99.90
43183;DHT22;28802;38.578;-0.066;2022-11-15T00:37:41;16.10;99.90
43183;DHT22;28802;38.578;-0.066;2022-11-15T00:40:25;16.10;99.90
43183;DHT22;28802;38.578;-0.066;2022-11-15T00:43:10;16.10;99.90
43183;DHT22;28802;38.578;-0.066;2022-11-15T00:45:54;16.10;99.90
43183;DHT22;28802;38.578;-0.066;2022-11-15T00:48:39;16.10;99.90
43183;DHT22;28802;38.578;-0.066;2022-11-15T00:51:23;16.10;99.90
43183;DHT22;28802;38.578;-0.066;2022-11-15T00:54:08;16.10;99.90
43183;DHT22;28802;38.578;-0.066;2022-11-15T00:56:52;16.00;99.90
43183;DHT22;28802;38.578;-0.066;2022-11-15T00:59:36;16.00;99.90
43183;DHT22;28802;38.578;-0.066;2022-11-15T01:02:21;16.00;99.90
43183;DHT22;28802;38.578;-0.066;2022-11-15T01:05:06;16.00;99.90
43183;DHT22;28802;38.578;-0.066;2022-11-15T01:07:55;16.00;99.90
43183;DHT22;28802;38.578;-0.066;2022-11-15T01:10:40;15.90;99.90
43183;DHT22;28802;38.578;-0.066;2022-11-15T01:13:24;15.90;99.90
43183;DHT22;28802;38.578;-0.066;2022-11-15T01:16:15;15.90;99.90
43183;DHT22;28802;38.578;-0.066;2022-11-15T01:19:00;15.90;99.90
43183;DHT22;28802;38.578;-0.066;2022-11-15T01:21:45;15.80;99.90
43183;DHT22;28802;38.578;-0.066;2022-11-15T01:24:29;15.80;99.90
43183;DHT22;28802;38.578;-0.066;2022-11-15T01:27:13;15.80;99.90
43183;DHT22;28802;38.578;-0.066;2022-11-15T01:29:58;15.90;99.90
43183;DHT22;28802;38.578;-0.066;2022-11-15T01:32:43;15.90;99.90
43183;DHT22;28802;38.578;-0.066;2022-11-15T01:35:27;15.80;99.90
43183;DHT22;28802;38.578;-0.066;2022-11-15T01:38:12;15.80;99.90
43183;DHT22;28802;38.578;-0.066;2022-11-15T01:40:56;15.80;99.90
43183;DHT22;28802;38.578;-0.066;2022-11-15T01:43:41;15.80;99.90
43183;DHT22;28802;38.578;-0.066;2022-11-15T01:46:31;15.80;99.90
43183;DHT22;28802;38.578;-0.066;2022-11-15T01:49:20;15.80;99.90
43183;DHT22;28802;38.578;-0.066;2022-11-15T01:52:10;15.80;99.90
43183;DHT22;28802;38.578;-0.066;2022-11-15T01:58:00;15.80;99.90
43183;DHT22;28802;38.578;-0.066;2022-11-15T02:00:46;15.80;99.90
43183;DHT22;28802;38.578;-0.066;2022-11-15T02:03:39;15.80;99.90
43183;DHT22;28802;38.578;-0.066;2022-11-15T02:06:25;15.80;99.90
43183;DHT22;28802;38.578;-0.066;2022-11-15T02:09:10;15.80;99.90
43183;DHT22;28802;38.578;-0.066;2022-11-15T02:11:55;15.90;99.90
43183;DHT22;28802;38.578;-0.066;2022-11-15T02:14:42;15.90;99.90
43183;DHT22;28802;38.578;-0.066;2022-11-15T02:20:42;16.00;99.90
43183;DHT22;28802;38.578;-0.066;2022-11-15T02:32:34;16.00;99.90
43183;DHT22;28802;38.578;-0.066;2022-11-15T02:44:42;16.20;99.90
43183;DHT22;28802;38.578;-0.066;2022-11-15T02:47:30;16.10;99.90
43183;DHT22;28802;38.578;-0.066;2022-11-15T02:50:20;16.10;99.90
43183;DHT22;28802;38.578;-0.066;2022-11-15T02:53:05;16.00;99.90
43183;DHT22;28802;38.578;-0.066;2022-11-15T02:55:51;16.00;99.90
43183;DHT22;28802;38.578;-0.066;2022-11-15T02:58:48;15.90;99.90
43183;DHT22;28802;38.578;-0.066;2022-11-15T03:05:27;15.90;99.90
43183;DHT22;28802;38.578;-0.066;2022-11-15T03:08:16;15.80;99.90
43183;DHT22;28802;38.578;-0.066;2022-11-15T03:14:24;15.80;99.90
43183;DHT22;28802;38.578;-0.066;2022-11-15T03:20:09;15.90;99.90
43183;DHT22;28802;38.578;-0.066;2022-11-15T03:23:00;15.90;99.90
43183;DHT22;28802;38.578;-0.066;2022-11-15T03:25:48;15.90;99.90
43183;DHT22;28802;38.578;-0.066;2022-11-15T03:28:44;15.80;99.90
43183;DHT22;28802;38.578;-0.066;2022-11-15T03:31:34;15.60;99.90
43183;DHT22;28802;38.578;-0.066;2022-11-15T03:34:34;15.60;99.90
43183;DHT22;28802;38.578;-0.066;2022-11-15T03:37:24;15.50;99.90
43183;DHT22;28802;38.578;-0.066;2022-11-15T03:40:11;15.50;99.90
43183;DHT22;28802;38.578;-0.066;2022-11-15T03:42:59;15.50;99.90
43183;DHT22;28802;38.578;-0.066;2022-11-15T03:45:56;15.60;99.90
43183;DHT22;28802;38.578;-0.066;2022-11-15T03:48:52;15.60;99.90
43183;DHT22;28802;38.578;-0.066;2022-11-15T03:51:37;15.60;99.90
43183;DHT22;28802;38.578;-0.066;2022-11-15T03:54:22;15.50;99.90
43183;DHT22;28802;38.578;-0.066;2022-11-15T03:57:06;15.50;99.90
43183;DHT22;28802;38.578;-0.066;2022-11-15T03:59:50;15.50;99.90
43183;DHT22;28802;38.578;-0.066;2022-11-15T04:02:35;15.40;99.90
43183;DHT22;28802;38.578;-0.066;2022-11-15T04:05:20;15.50;99.90
43183;DHT22;28802;38.578;-0.066;2022-11-15T04:08:04;15.40;99.90
43183;DHT22;28802;38.578;-0.066;2022-11-15T04:10:49;15.40;99.90
43183;DHT22;28802;38.578;-0.066;2022-11-15T04:13:34;15.40;99.90
43183;DHT22;28802;38.578;-0.066;2022-11-15T04:16:18;15.30;99.90
43183;DHT22;28802;38.578;-0.066;2022-11-15T04:19:03;15.30;99.90
43183;DHT22;28802;38.578;-0.066;2022-11-15T04:22:07;15.30;99.90
43183;DHT22;28802;38.578;-0.066;2022-11-15T04:25:11;15.30;99.90
43183;DHT22;28802;38.578;-0.066;2022-11-15T04:27:55;15.30;99.90
43183;DHT22;28802;38.578;-0.066;2022-11-15T04:30:39;15.20;99.90
43183;DHT22;28802;38.578;-0.066;2022-11-15T04:33:24;15.20;99.90
43183;DHT22;28802;38.578;-0.066;2022-11-15T04:36:09;15.20;99.90
43183;DHT22;28802;38.578;-0.066;2022-11-15T04:39:12;15.30;99.90
43183;DHT22;28802;38.578;-0.066;2022-11-15T04:41:56;15.30;99.90
43183;DHT22;28802;38.578;-0.066;2022-11-15T04:44:41;15.30;99.90
43183;DHT22;28802;38.578;-0.066;2022-11-15T04:47:25;15.30;99.90
43183;DHT22;28802;38.578;-0.066;2022-11-15T04:50:09;15.30;99.90
43183;DHT22;28802;38.578;-0.066;2022-11-15T04:52:57;15.30;99.90
43183;DHT22;28802;38.578;-0.066;2022-11-15T04:55:45;15.30;99.90
43183;DHT22;28802;38.578;-0.066;2022-11-15T04:58:29;15.30;99.90
43183;DHT22;28802;38.578;-0.066;2022-11-15T05:01:14;15.30;99.90
43183;DHT22;28802;38.578;-0.066;2022-11-15T05:03:59;15.30;99.90
43183;DHT22;28802;38.578;-0.066;2022-11-15T05:07:02;15.10;99.90
43183;DHT22;28802;38.578;-0.066;2022-11-15T05:09:48;15.20;99.90
43183;DHT22;28802;38.578;-0.066;2022-11-15T05:12:32;15.20;99.90
43183;DHT22;28802;38.578;-0.066;2022-11-15T05:15:16;15.20;99.90
43183;DHT22;28802;38.578;-0.066;2022-11-15T05:18:00;15.20;99.90
43183;DHT22;28802;38.578;-0.066;2022-11-15T05:20:45;15.20;99.90
43183;DHT22;28802;38.578;-0.066;2022-11-15T05:23:30;15.20;99.90
43183;DHT22;28802;38.578;-0.066;2022-11-15T05:26:16;15.30;99.90
43183;DHT22;28802;38.578;-0.066;2022-11-15T05:29:02;15.30;99.90
43183;DHT22;28802;38.578;-0.066;2022-11-15T05:31:46;15.40;99.90
43183;DHT22;28802;38.578;-0.066;2022-11-15T05:34:31;15.40;99.90
43183;DHT22;28802;38.578;-0.066;2022-11-15T05:37:16;15.40;99.90
43183;DHT22;28802;38.578;-0.066;2022-11-15T05:40:01;15.50;99.90
43183;DHT22;28802;38.578;-0.066;2022-11-15T05:42:45;15.60;99.90
43183;DHT22;28802;38.578;-0.066;2022-11-15T05:45:32;15.50;99.90
43183;DHT22;28802;38.578;-0.066;2022-11-15T05:48:21;15.50;99.90
43183;DHT22;28802;38.578;-0.066;2022-11-15T05:51:06;15.40;99.90
43183;DHT22;28802;38.578;-0.066;2022-11-15T05:53:52;15.40;99.90
43183;DHT22;28802;38.578;-0.066;2022-11-15T05:56:37;15.40;99.90
43183;DHT22;28802;38.578;-0.066;2022-11-15T05:59:21;15.70;99.90
43183;DHT22;28802;38.578;-0.066;2022-11-15T06:02:06;16.00;99.90
43183;DHT22;28802;38.578;-0.066;2022-11-15T06:04:51;15.90;99.90
43183;DHT22;28802;38.578;-0.066;2022-11-15T06:07:35;15.70;99.90
43183;DHT22;28802;38.578;-0.066;2022-11-15T06:10:20;15.50;99.90
43183;DHT22;28802;38.578;-0.066;2022-11-15T06:13:04;15.50;99.90
43183;DHT22;28802;38.578;-0.066;2022-11-15T06:15:49;15.50;99.90
43183;DHT22;28802;38.578;-0.066;2022-11-15T06:18:34;15.50;99.90
43183;DHT22;28802;38.578;-0.066;2022-11-15T06:21:19;15.50;99.90
43183;DHT22;28802;38.578;-0.066;2022-11-15T06:24:04;15.50;99.90
43183;DHT22;28802;38.578;-0.066;2022-11-15T06:26:49;15.60;99.90
43183;DHT22;28802;38.578;-0.066;2022-11-15T06:29:34;15.60;99.90
43183;DHT22;28802;38.578;-0.066;2022-11-15T06:32:18;15.50;99.90
43183;DHT22;28802;38.578;-0.066;2022-11-15T06:35:02;15.50;99.90
43183;DHT22;28802;38.578;-0.066;2022-11-15T06:37:47;15.50;99.90
43183;DHT22;28802;38.578;-0.066;2022-11-15T06:40:34;15.50;99.90
43183;DHT22;28802;38.578;-0.066;2022-11-15T06:43:19;15.40;99.90
43183;DHT22;28802;38.578;-0.066;2022-11-15T06:46:04;15.30;99.90
43183;DHT22;28802;38.578;-0.066;2022-11-15T06:48:51;15.30;99.90
43183;DHT22;28802;38.578;-0.066;2022-11-15T06:51:36;15.20;99.90
43183;DHT22;28802;38.578;-0.066;2022-11-15T06:57:12;15.20;99.90
43183;DHT22;28802;38.578;-0.066;2022-11-15T06:59:57;15.30;99.90
43183;DHT22;28802;38.578;-0.066;2022-11-15T07:02:42;15.50;99.90
43183;DHT22;28802;38.578;-0.066;2022-11-15T07:05:26;15.60;99.90
43183;DHT22;28802;38.578;-0.066;2022-11-15T07:08:11;15.90;99.90
43183;DHT22;28802;38.578;-0.066;2022-11-15T07:11:00;16.40;99.90
43183;DHT22;28802;38.578;-0.066;2022-11-15T07:13:45;16.90;99.90
43183;DHT22;28802;38.578;-0.066;2022-11-15T07:16:30;16.80;99.90
43183;DHT22;28802;38.578;-0.066;2022-11-15T07:19:15;17.00;99.90
43183;DHT22;28802;38.578;-0.066;2022-11-15T07:21:59;16.80;99.90
43183;DHT22;28802;38.578;-0.066;2022-11-15T07:24:44;16.90;99.90
43183;DHT22;28802;38.578;-0.066;2022-11-15T07:27:29;16.80;99.90
43183;DHT22;28802;38.578;-0.066;2022-11-15T07:30:13;16.70;99.90
43183;DHT22;28802;38.578;-0.066;2022-11-15T07:32:59;16.60;99.90
43183;DHT22;28802;38.578;-0.066;2022-11-15T07:35:44;16.80;99.90
43183;DHT22;28802;38.578;-0.066;2022-11-15T07:38:33;16.80;99.90
43183;DHT22;28802;38.578;-0.066;2022-11-15T07:41:18;17.10;99.90
43183;DHT22;28802;38.578;-0.066;2022-11-15T07:44:03;17.00;99.90
43183;DHT22;28802;38.578;-0.066;2022-11-15T07:46:48;17.10;99.90
43183;DHT22;28802;38.578;-0.066;2022-11-15T07:49:32;17.30;99.90
43183;DHT22;28802;38.578;-0.066;2022-11-15T07:52:17;18.00;99.90
43183;DHT22;28802;38.578;-0.066;2022-11-15T07:55:01;18.40;99.90
43183;DHT22;28802;38.578;-0.066;2022-11-15T07:57:46;18.60;99.90
43183;DHT22;28802;38.578;-0.066;2022-11-15T08:00:32;19.10;99.90
43183;DHT22;28802;38.578;-0.066;2022-11-15T08:03:17;19.80;99.90
43183;DHT22;28802;38.578;-0.066;2022-11-15T08:06:02;20.00;99.90
43183;DHT22;28802;38.578;-0.066;2022-11-15T08:08:47;20.10;99.90
43183;DHT22;28802;38.578;-0.066;2022-11-15T08:11:38;20.70;99.90
43183;DHT22;28802;38.578;-0.066;2022-11-15T08:14:22;20.30;99.90
43183;DHT22;28802;38.578;-0.066;2022-11-15T08:17:07;20.40;99.90
43183;DHT22;28802;38.578;-0.066;2022-11-15T08:19:57;21.20;99.90
43183;DHT22;28802;38.578;-0.066;2022-11-15T08:22:42;22.40;99.90
43183;DHT22;28802;38.578;-0.066;2022-11-15T08:25:29;23.10;99.90
43183;DHT22;28802;38.578;-0.066;2022-11-15T08:28:16;23.10;99.90
43183;DHT22;28802;38.578;-0.066;2022-11-15T08:31:02;23.10;99.90
43183;DHT22;28802;38.578;-0.066;2022-11-15T08:33:47;22.80;99.90
43183;DHT22;28802;38.578;-0.066;2022-11-15T08:36:32;22.40;99.90
43183;DHT22;28802;38.578;-0.066;2022-11-15T08:39:17;22.90;99.90
43183;DHT22;28802;38.578;-0.066;2022-11-15T08:42:01;23.80;99.90
43183;DHT22;28802;38.578;-0.066;2022-11-15T08:44:46;24.40;99.90
43183;DHT22;28802;38.578;-0.066;2022-11-15T08:47:30;24.80;99.90
43183;DHT22;28802;38.578;-0.066;2022-11-15T08:50:15;25.10;99.90
43183;DHT22;28802;38.578;-0.066;2022-11-15T08:53:07;25.10;99.90
43183;DHT22;28802;38.578;-0.066;2022-11-15T08:55:52;25.50;99.90
43183;DHT22;28802;38.578;-0.066;2022-11-15T08:58:37;25.90;99.90
43183;DHT22;28802;38.578;-0.066;2022-11-15T09:01:22;26.00;99.90
43183;DHT22;28802;38.578;-0.066;2022-11-15T09:04:06;25.20;99.90
43183;DHT22;28802;38.578;-0.066;2022-11-15T09:06:51;24.40;99.90
43183;DHT22;28802;38.578;-0.066;2022-11-15T09:09:35;24.00;99.90
43183;DHT22;28802;38.578;-0.066;2022-11-15T09:12:20;23.80;99.90
43183;DHT22;28802;38.578;-0.066;2022-11-15T09:15:05;23.40;99.90
43183;DHT22;28802;38.578;-0.066;2022-11-15T09:17:50;22.70;99.90
43183;DHT22;28802;38.578;-0.066;2022-11-15T09:20:34;22.30;99.90
43183;DHT22;28802;38.578;-0.066;2022-11-15T09:23:19;22.00;99.90
43183;DHT22;28802;38.578;-0.066;2022-11-15T09:26:04;21.60;99.90
43183;DHT22;28802;38.578;-0.066;2022-11-15T09:28:49;21.60;99.90
43183;DHT22;28802;38.578;-0.066;2022-11-15T09:31:34;21.60;99.90
43183;DHT22;28802;38.578;-0.066;2022-11-15T09:34:18;21.70;99.90
43183;DHT22;28802;38.578;-0.066;2022-11-15T09:37:04;21.80;99.90
43183;DHT22;28802;38.578;-0.066;2022-11-15T09:39:49;21.70;99.90
43183;DHT22;28802;38.578;-0.066;2022-11-15T09:46:24;21.50;99.90
43183;DHT22;28802;38.578;-0.066;2022-11-15T09:49:11;21.60;99.90
43183;DHT22;28802;38.578;-0.066;2022-11-15T09:52:01;21.60;99.90
43183;DHT22;28802;38.578;-0.066;2022-11-15T09:54:31;21.80;99.90
43183;DHT22;28802;38.578;-0.066;2022-11-15T10:03:03;21.40;99.90
43183;DHT22;28802;38.578;-0.066;2022-11-15T10:05:30;21.30;99.90
43183;DHT22;28802;38.578;-0.066;2022-11-15T10:08:10;21.30;99.90
43183;DHT22;28802;38.578;-0.066;2022-11-15T10:10:51;21.30;99.90
43183;DHT22;28802;38.578;-0.066;2022-11-15T10:13:32;21.30;99.90
43183;DHT22;28802;38.578;-0.066;2022-11-15T10:46:28;23.00;99.90
43183;DHT22;28802;38.578;-0.066;2022-11-15T10:52:04;22.90;99.90
43183;DHT22;28802;38.578;-0.066;2022-11-15T10:54:43;22.80;99.90
43183;DHT22;28802;38.578;-0.066;2022-11-15T10:57:14;22.70;99.90
43183;DHT22;28802;38.578;-0.066;2022-11-15T11:00:02;22.50;99.90
43183;DHT22;28802;38.578;-0.066;2022-11-15T11:02:37;22.30;99.90
43183;DHT22;28802;38.578;-0.066;2022-11-15T11:05:07;22.20;99.90
43183;DHT22;28802;38.578;-0.066;2022-11-15T11:08:05;22.00;99.90
43183;DHT22;28802;38.578;-0.066;2022-11-15T11:10:32;21.70;99.90
43183;DHT22;28802;38.578;-0.066;2022-11-15T11:15:55;21.90;99.90
43183;DHT22;28802;38.578;-0.066;2022-11-15T11:18:38;22.10;99.90
43183;DHT22;28802;38.578;-0.066;2022-11-15T11:21:09;21.80;99.90
43183;DHT22;28802;38.578;-0.066;2022-11-15T11:31:55;21.10;99.90
43183;DHT22;28802;38.578;-0.066;2022-11-15T11:43:11;21.70;99.90
43183;DHT22;28802;38.578;-0.066;2022-11-15T11:48:43;22.30;99.90
43183;DHT22;28802;38.578;-0.066;2022-11-15T11:51:24;22.30;99.90
43183;DHT22;28802;38.578;-0.066;2022-11-15T11:54:03;22.40;99.90
43183;DHT22;28802;38.578;-0.066;2022-11-15T11:56:35;22.40;99.90
43183;DHT22;28802;38.578;-0.066;2022-11-15T12:01:46;22.10;99.90
43183;DHT22;28802;38.578;-0.066;2022-11-15T12:04:24;21.80;99.90
43183;DHT22;28802;38.578;-0.066;2022-11-15T12:07:17;21.80;99.90
43183;DHT22;28802;38.578;-0.066;2022-11-15T12:09:53;22.40;99.90
43183;DHT22;28802;38.578;-0.066;2022-11-15T12:15:31;22.50;99.90
43183;DHT22;28802;38.578;-0.066;2022-11-15T12:18:00;22.40;99.90
43183;DHT22;28802;38.578;-0.066;2022-11-15T12:20:30;22.30;99.90
43183;DHT22;28802;38.578;-0.066;2022-11-15T12:23:21;22.40;99.90
43183;DHT22;28802;38.578;-0.066;2022-11-15T12:33:55;22.40;99.90
43183;DHT22;28802;38.578;-0.066;2022-11-15T12:38:52;22.60;99.90
43183;DHT22;28802;38.578;-0.066;2022-11-15T12:41:20;22.60;99.90
43183;DHT22;28802;38.578;-0.066;2022-11-15T12:43:47;22.50;99.90
43183;DHT22;28802;38.578;-0.066;2022-11-15T12:46:21;22.70;99.90
43183;DHT22;28802;38.578;-0.066;2022-11-15T12:48:51;22.70;99.90
43183;DHT22;28802;38.578;-0.066;2022-11-15T12:51:20;22.70;99.90
43183;DHT22;28802;38.578;-0.066;2022-11-15T12:53:46;22.60;99.90
43183;DHT22;28802;38.578;-0.066;2022-11-15T12:58:55;22.70;99.90
43183;DHT22;28802;38.578;-0.066;2022-11-15T13:07:01;22.40;99.90
43183;DHT22;28802;38.578;-0.066;2022-11-15T13:14:48;22.30;99.90
43183;DHT22;28802;38.578;-0.066;2022-11-15T13:17:36;22.20;99.90
43183;DHT22;28802;38.578;-0.066;2022-11-15T13:20:30;22.00;99.90
43183;DHT22;28802;38.578;-0.066;2022-11-15T13:27:53;21.90;99.90
43183;DHT22;28802;38.578;-0.066;2022-11-15T13:30:26;21.90;99.90
43183;DHT22;28802;38.578;-0.066;2022-11-15T13:32:53;21.90;99.90
43183;DHT22;28802;38.578;-0.066;2022-11-15T13:35:28;21.90;99.90
43183;DHT22;28802;38.578;-0.066;2022-11-15T13:38:03;21.70;99.90
43183;DHT22;28802;38.578;-0.066;2022-11-15T13:40:35;21.60;99.90
43183;DHT22;28802;38.578;-0.066;2022-11-15T13:48:35;21.50;99.90
43183;DHT22;28802;38.578;-0.066;2022-11-15T13:51:12;21.40;99.90
43183;DHT22;28802;38.578;-0.066;2022-11-15T13:53:44;21.40;99.90
43183;DHT22;28802;38.578;-0.066;2022-11-15T13:56:13;21.40;99.90
43183;DHT22;28802;38.578;-0.066;2022-11-15T13:58:40;21.40;99.90
43183;DHT22;28802;38.578;-0.066;2022-11-15T14:01:08;21.40;99.90
43183;DHT22;28802;38.578;-0.066;2022-11-15T14:03:48;21.50;99.90
43183;DHT22;28802;38.578;-0.066;2022-11-15T14:06:17;21.60;99.90
43183;DHT22;28802;38.578;-0.066;2022-11-15T14:11:53;21.80;99.90
43183;DHT22;28802;38.578;-0.066;2022-11-15T14:14:25;21.90;99.90
43183;DHT22;28802;38.578;-0.066;2022-11-15T14:16:56;21.80;99.90
43183;DHT22;28802;38.578;-0.066;2022-11-15T14:24:35;21.50;99.90
43183;DHT22;28802;38.578;-0.066;2022-11-15T14:27:22;21.50;99.90
43183;DHT22;28802;38.578;-0.066;2022-11-15T14:29:49;21.60;99.90
43183;DHT22;28802;38.578;-0.066;2022-11-15T14:32:29;21.50;99.90
43183;DHT22;28802;38.578;-0.066;2022-11-15T14:35:00;21.40;99.90
43183;DHT22;28802;38.578;-0.066;2022-11-15T14:37:33;21.40;99.90
43183;DHT22;28802;38.578;-0.066;2022-11-15T14:40:02;21.40;99.90
43183;DHT22;28802;38.578;-0.066;2022-11-15T14:42:28;21.30;99.90
43183;DHT22;28802;38.578;-0.066;2022-11-15T14:44:54;21.40;99.90
43183;DHT22;28802;38.578;-0.066;2022-11-15T14:47:20;21.40;99.90
43183;DHT22;28802;38.578;-0.066;2022-11-15T14:49:46;21.40;99.90
43183;DHT22;28802;38.578;-0.066;2022-11-15T14:52:32;21.40;99.90
43183;DHT22;28802;38.578;-0.066;2022-11-15T14:55:03;21.40;99.90
43183;DHT22;28802;38.578;-0.066;2022-11-15T14:57:30;21.60;99.90
43183;DHT22;28802;38.578;-0.066;2022-11-15T14:59:56;21.60;99.90
43183;DHT22;28802;38.578;-0.066;2022-11-15T15:02:24;21.60;99.90
43183;DHT22;28802;38.578;-0.066;2022-11-15T15:04:50;21.50;99.90
43183;DHT22;28802;38.578;-0.066;2022-11-15T15:07:17;21.50;99.90
43183;DHT22;28802;38.578;-0.066;2022-11-15T15:09:43;21.40;99.90
43183;DHT22;28802;38.578;-0.066;2022-11-15T15:12:16;21.30;99.90
43183;DHT22;28802;38.578;-0.066;2022-11-15T15:14:43;21.30;99.90
43183;DHT22;28802;38.578;-0.066;2022-11-15T15:17:09;21.40;99.90
43183;DHT22;28802;38.578;-0.066;2022-11-15T15:19:35;21.40;99.90
43183;DHT22;28802;38.578;-0.066;2022-11-15T15:22:01;21.40;99.90
43183;DHT22;28802;38.578;-0.066;2022-11-15T15:24:27;21.40;99.90
43183;DHT22;28802;38.578;-0.066;2022-11-15T15:26:53;21.40;99.90
43183;DHT22;28802;38.578;-0.066;2022-11-15T15:29:18;21.40;99.90
43183;DHT22;28802;38.578;-0.066;2022-11-15T15:31:44;21.40;99.90
43183;DHT22;28802;38.578;-0.066;2022-11-15T15:34:10;21.30;99.90
43183;DHT22;28802;38.578;-0.066;2022-11-15T15:36:36;21.30;99.90
43183;DHT22;28802;38.578;-0.066;2022-11-15T15:39:02;21.20;99.90
43183;DHT22;28802;38.578;-0.066;2022-11-15T15:41:28;21.20;99.90
43183;DHT22;28802;38.578;-0.066;2022-11-15T15:43:53;21.10;99.90
43183;DHT22;28802;38.578;-0.066;2022-11-15T15:46:20;21.20;99.90
43183;DHT22;28802;38.578;-0.066;2022-11-15T15:48:46;21.20;99.90
43183;DHT22;28802;38.578;-0.066;2022-11-15T15:51:12;21.30;99.90
43183;DHT22;28802;38.578;-0.066;2022-11-15T15:53:39;21.30;99.90
43183;DHT22;28802;38.578;-0.066;2022-11-15T15:56:05;21.30;99.90
43183;DHT22;28802;38.578;-0.066;2022-11-15T15:58:34;21.20;99.90
43183;DHT22;28802;38.578;-0.066;2022-11-15T16:01:00;21.20;99.90
43183;DHT22;28802;38.578;-0.066;2022-11-15T16:03:26;21.20;99.90
43183;DHT22;28802;38.578;-0.066;2022-11-15T16:05:53;21.20;99.90
43183;DHT22;28802;38.578;-0.066;2022-11-15T16:08:21;21.20;99.90
43183;DHT22;28802;38.578;-0.066;2022-11-15T16:10:48;21.10;99.90
43183;DHT22;28802;38.578;-0.066;2022-11-15T16:13:14;21.10;99.90
43183;DHT22;28802;38.578;-0.066;2022-11-15T16:15:40;21.10;99.90
43183;DHT22;28802;38.578;-0.066;2022-11-15T16:18:14;21.00;99.90
43183;DHT22;28802;38.578;-0.066;2022-11-15T16:20:46;21.00;99.90
43183;DHT22;28802;38.578;-0.066;2022-11-15T16:23:16;20.90;99.90
43183;DHT22;28802;38.578;-0.066;2022-11-15T16:25:48;20.90;99.90
43183;DHT22;28802;38.578;-0.066;2022-11-15T16:28:27;20.80;99.90
43183;DHT22;28802;38.578;-0.066;2022-11-15T16:31:19;20.80;99.90
43183;DHT22;28802;38.578;-0.066;2022-11-15T16:33:49;20.80;99.90
43183;DHT22;28802;38.578;-0.066;2022-11-15T16:36:19;20.80;99.90
43183;DHT22;28802;38.578;-0.066;2022-11-15T16:38:45;20.80;99.90
43183;DHT22;28802;38.578;-0.066;2022-11-15T16:41:11;20.80;99.90
43183;DHT22;28802;38.578;-0.066;2022-11-15T16:43:37;20.80;99.90
43183;DHT22;28802;38.578;-0.066;2022-11-15T16:46:18;20.80;99.90
43183;DHT22;28802;38.578;-0.066;2022-11-15T16:48:45;20.70;99.90
43183;DHT22;28802;38.578;-0.066;2022-11-15T16:51:11;20.70;99.90
43183;DHT22;28802;38.578;-0.066;2022-11-15T16:53:38;20.60;99.90
43183;DHT22;28802;38.578;-0.066;2022-11-15T16:56:30;20.60;99.90
43183;DHT22;28802;38.578;-0.066;2022-11-15T16:58:59;20.50;99.90
43183;DHT22;28802;38.578;-0.066;2022-11-15T17:01:27;20.40;99.90
43183;DHT22;28802;38.578;-0.066;2022-11-15T17:03:53;20.40;99.90
43183;DHT22;28802;38.578;-0.066;2022-11-15T17:06:21;20.40;99.90
43183;DHT22;28802;38.578;-0.066;2022-11-15T17:08:47;20.40;99.90
43183;DHT22;28802;38.578;-0.066;2022-11-15T17:11:19;20.50;99.90
43183;DHT22;28802;38.578;-0.066;2022-11-15T17:13:46;20.40;99.90
43183;DHT22;28802;38.578;-0.066;2022-11-15T17:16:15;20.40;99.90
43183;DHT22;28802;38.578;-0.066;2022-11-15T17:18:42;20.30;99.90
43183;DHT22;28802;38.578;-0.066;2022-11-15T17:21:13;20.20;99.90
43183;DHT22;28802;38.578;-0.066;2022-11-15T17:23:40;20.10;99.90
43183;DHT22;28802;38.578;-0.066;2022-11-15T17:26:06;20.10;99.90
43183;DHT22;28802;38.578;-0.066;2022-11-15T17:28:33;20.10;99.90
43183;DHT22;28802;38.578;-0.066;2022-11-15T17:30:59;20.20;99.90
43183;DHT22;28802;38.578;-0.066;2022-11-15T17:33:26;20.10;99.90
43183;DHT22;28802;38.578;-0.066;2022-11-15T17:36:00;20.20;99.90
43183;DHT22;28802;38.578;-0.066;2022-11-15T17:38:27;20.20;99.90
43183;DHT22;28802;38.578;-0.066;2022-11-15T17:41:19;20.30;99.90
43183;DHT22;28802;38.578;-0.066;2022-11-15T17:43:48;20.40;99.90
43183;DHT22;28802;38.578;-0.066;2022-11-15T17:46:17;20.30;99.90
43183;DHT22;28802;38.578;-0.066;2022-11-15T17:48:44;20.30;99.90
43183;DHT22;28802;38.578;-0.066;2022-11-15T17:51:12;20.30;99.90
43183;DHT22;28802;38.578;-0.066;2022-11-15T17:53:40;20.20;99.90
43183;DHT22;28802;38.578;-0.066;2022-11-15T17:56:14;20.10;99.90
43183;DHT22;28802;38.578;-0.066;2022-11-15T17:58:41;20.10;99.90
43183;DHT22;28802;38.578;-0.066;2022-11-15T18:14:59;20.00;99.90
43183;DHT22;28802;38.578;-0.066;2022-11-15T18:17:42;20.10;99.90
43183;DHT22;28802;38.578;-0.066;2022-11-15T18:20:11;20.10;99.90
43183;DHT22;28802;38.578;-0.066;2022-11-15T18:22:38;19.90;99.90
43183;DHT22;28802;38.578;-0.066;2022-11-15T18:25:04;19.70;99.90
43183;DHT22;28802;38.578;-0.066;2022-11-15T18:27:33;19.60;99.90
43183;DHT22;28802;38.578;-0.066;2022-11-15T18:29:59;19.50;99.90
43183;DHT22;28802;38.578;-0.066;2022-11-15T18:32:25;19.60;99.90
43183;DHT22;28802;38.578;-0.066;2022-11-15T18:34:51;19.60;99.90
43183;DHT22;28802;38.578;-0.066;2022-11-15T18:37:18;19.60;99.90
43183;DHT22;28802;38.578;-0.066;2022-11-15T18:39:44;19.60;99.90
43183;DHT22;28802;38.578;-0.066;2022-11-15T18:42:10;19.60;99.90
43183;DHT22;28802;38.578;-0.066;2022-11-15T18:44:36;19.60;99.90
43183;DHT22;28802;38.578;-0.066;2022-11-15T18:47:07;19.60;99.90
43183;DHT22;28802;38.578;-0.066;2022-11-15T18:49:33;19.50;99.90
43183;DHT22;28802;38.578;-0.066;2022-11-15T18:51:59;19.50;99.90
43183;DHT22;28802;38.578;-0.066;2022-11-15T18:54:25;19.40;99.90
43183;DHT22;28802;38.578;-0.066;2022-11-15T18:56:51;19.40;99.90
43183;DHT22;28802;38.578;-0.066;2022-11-15T18:59:18;19.10;99.90
43183;DHT22;28802;38.578;-0.066;2022-11-15T19:02:03;18.90;99.90
43183;DHT22;28802;38.578;-0.066;2022-11-15T19:04:29;18.80;99.90
43183;DHT22;28802;38.578;-0.066;2022-11-15T19:06:55;18.90;99.90
43183;DHT22;28802;38.578;-0.066;2022-11-15T19:09:24;18.70;99.90
43183;DHT22;28802;38.578;-0.066;2022-11-15T19:11:57;18.70;99.90
43183;DHT22;28802;38.578;-0.066;2022-11-15T19:14:25;18.60;99.90